createdAt,value
2022-11-17T00:00:04.120Z,3.80
2022-11-17T00:02:30.435Z,3.80
2022-11-17T00:05:01.120Z,3.80
2022-11-17T00:07:27.530Z,3.80
2022-11-17T00:10:02.074Z,3.80
2022-11-17T00:12:51.656Z,3.80
2022-11-17T00:15:18.011Z,3.80
2022-11-17T00:17:48.141Z,3.80
2022-11-17T00:20:35.680Z,3.80
2022-11-17T00:23:07.748Z,3.80
2022-11-17T00:25:38.414Z,3.80
2022-11-17T00:28:05.025Z,3.80
2022-11-17T00:30:57.396Z,3.80
2022-11-17T00:33:44.921Z,3.80
2022-11-17T00:36:11.560Z,3.80
2022-11-17T00:38:38.205Z,3.80
2022-11-17T00:41:05.860Z,3.80
2022-11-17T00:43:35.399Z,3.80
2022-11-17T00:46:02.385Z,3.80
2022-11-17T00:48:28.894Z,3.80
2022-11-17T00:50:55.218Z,3.80
2022-11-17T00:53:21.658Z,3.80
2022-11-17T00:55:48.990Z,3.80
2022-11-17T00:58:18.945Z,3.80
2022-11-17T01:00:47.968Z,3.80
2022-11-17T01:03:15.601Z,3.80
2022-11-17T01:05:43.607Z,3.80
2022-11-17T01:08:10.062Z,3.80
2022-11-17T01:10:43.445Z,3.80
2022-11-17T01:13:09.955Z,3.80
2022-11-17T01:15:36.735Z,5.00
2022-11-17T01:18:03.643Z,3.80
2022-11-17T01:20:30.998Z,3.80
2022-11-17T01:22:57.628Z,3.80
2022-11-17T01:25:24.680Z,3.80
2022-11-17T01:27:56.968Z,3.80
2022-11-17T01:30:23.583Z,3.80
2022-11-17T01:32:54.521Z,3.80
2022-11-17T01:35:24.333Z,3.80
2022-11-17T01:37:50.665Z,3.80
2022-11-17T01:40:16.915Z,3.80
2022-11-17T01:42:58.346Z,3.90
2022-11-17T01:45:24.904Z,3.90
2022-11-17T01:48:09.529Z,3.80
2022-11-17T01:50:45.646Z,3.80
2022-11-17T01:56:04.448Z,3.80
2022-11-17T01:58:35.431Z,3.80
2022-11-17T02:01:02.019Z,3.80
2022-11-17T02:03:34.499Z,3.80
2022-11-17T02:06:34.840Z,3.80
2022-11-17T02:09:02.337Z,3.90
2022-11-17T02:11:37.161Z,3.90
2022-11-17T02:14:28.342Z,3.80
2022-11-17T02:17:01.417Z,3.90
2022-11-17T02:19:39.455Z,3.90
2022-11-17T02:22:49.909Z,3.90
2022-11-17T02:25:48.330Z,3.90
2022-11-17T02:28:46.646Z,3.90
2022-11-17T02:31:24.789Z,3.90
2022-11-17T02:34:19.662Z,3.90
2022-11-17T02:37:34.044Z,3.90
2022-11-17T02:46:02.968Z,3.90
2022-11-17T05:39:19.555Z,3.90
2022-11-17T05:41:46.504Z,3.90
2022-11-17T05:44:13.029Z,3.90
2022-11-17T05:46:39.170Z,3.90
2022-11-17T05:49:05.352Z,3.90
2022-11-17T05:51:31.767Z,3.90
2022-11-17T05:53:58.043Z,3.90
2022-11-17T05:56:55.327Z,3.90
2022-11-17T05:59:42.474Z,3.90
2022-11-17T06:02:15.502Z,3.80
2022-11-17T06:04:42.263Z,3.90
2022-11-17T06:07:08.607Z,3.90
2022-11-17T06:09:36.498Z,3.90
2022-11-17T06:12:06.145Z,3.90
2022-11-17T06:14:35.305Z,3.80
2022-11-17T06:17:03.629Z,3.80
2022-11-17T06:19:40.091Z,3.80
2022-11-17T06:22:13.912Z,3.90
2022-11-17T06:24:43.925Z,3.80
2022-11-17T06:27:14.674Z,3.90
2022-11-17T06:29:44.966Z,3.90
2022-11-17T06:32:14.062Z,3.90
2022-11-17T06:34:41.975Z,3.90
2022-11-17T06:37:08.492Z,3.90
2022-11-17T06:39:34.793Z,3.90
2022-11-17T06:42:01.383Z,6.10
2022-11-17T06:44:27.552Z,3.90
2022-11-17T06:46:53.700Z,3.90
2022-11-17T06:49:19.898Z,3.90
2022-11-17T06:51:46.751Z,3.90
2022-11-17T06:54:13.817Z,3.90
2022-11-17T06:56:40.495Z,3.90
2022-11-17T06:59:07.843Z,3.90
2022-11-17T07:01:34.804Z,3.90
2022-11-17T07:04:00.936Z,3.90
2022-11-17T07:06:27.118Z,3.90
2022-11-17T07:08:53.311Z,4.00
2022-11-17T07:11:19.637Z,4.00
2022-11-17T07:13:45.818Z,4.00
2022-11-17T07:16:22.858Z,4.00
2022-11-17T07:18:49.582Z,4.00
2022-11-17T07:21:16.480Z,4.00
2022-11-17T07:23:44.720Z,4.00
2022-11-17T07:26:11.096Z,4.00
2022-11-17T07:28:37.694Z,4.00
2022-11-17T07:31:05.482Z,4.00
2022-11-17T07:33:33.184Z,4.10
2022-11-17T07:36:08.878Z,4.10
2022-11-17T07:38:35.723Z,4.10
2022-11-17T07:41:02.694Z,4.10
2022-11-17T07:43:28.904Z,4.10
2022-11-17T07:45:55.411Z,4.10
2022-11-17T07:48:21.727Z,4.10
2022-11-17T07:50:48.355Z,4.00
2022-11-17T07:53:15.278Z,4.00
2022-11-17T07:55:43.536Z,1.80
2022-11-17T07:58:09.907Z,4.00
2022-11-17T08:00:36.504Z,4.00
2022-11-17T08:03:04.029Z,4.00
2022-11-17T08:05:31.584Z,4.00
2022-11-17T08:07:59.474Z,4.00
2022-11-17T08:10:30.910Z,4.00
2022-11-17T08:12:59.966Z,4.00
2022-11-17T08:15:27.573Z,3.90
2022-11-17T08:17:58.820Z,3.90
2022-11-17T08:20:25.822Z,3.90
2022-11-17T08:22:52.868Z,3.90
2022-11-17T08:25:19.554Z,3.90
2022-11-17T08:27:48.336Z,3.90
2022-11-17T08:30:16.058Z,3.90
2022-11-17T08:32:48.832Z,3.90
2022-11-17T08:35:17.007Z,3.90
2022-11-17T08:37:43.546Z,3.90
2022-11-17T08:40:11.121Z,3.90
2022-11-17T08:42:37.430Z,4.50
2022-11-17T08:45:07.665Z,3.90
2022-11-17T08:47:33.986Z,4.00
2022-11-17T08:50:00.415Z,4.00
2022-11-17T08:52:27.716Z,4.00
2022-11-17T08:54:54.696Z,4.00
2022-11-17T08:57:21.808Z,4.00
2022-11-17T08:59:49.217Z,4.00
2022-11-17T09:02:16.682Z,4.00
2022-11-17T09:04:46.917Z,4.10
2022-11-17T09:07:13.939Z,4.10
2022-11-17T09:09:40.334Z,4.10
2022-11-17T09:12:06.808Z,4.10
2022-11-17T09:14:33.460Z,4.10
2022-11-17T09:17:00.078Z,4.00
2022-11-17T09:19:27.245Z,4.00
2022-11-17T09:21:53.612Z,4.00
2022-11-17T09:24:19.904Z,4.00
2022-11-17T09:26:46.963Z,4.00
2022-11-17T09:29:13.285Z,4.00
2022-11-17T09:31:40.992Z,4.10
2022-11-17T09:34:07.961Z,4.20
2022-11-17T09:36:34.360Z,4.20
2022-11-17T09:39:02.076Z,4.20
2022-11-17T09:41:51.413Z,4.20
2022-11-17T09:44:42.116Z,4.10
2022-11-17T09:48:33.580Z,4.10
2022-11-17T09:51:08.012Z,4.10
2022-11-17T09:53:45.082Z,4.00
2022-11-17T09:56:11.633Z,4.00
2022-11-17T09:58:45.668Z,4.00
2022-11-17T10:01:14.084Z,4.00
2022-11-17T10:03:46.038Z,3.90
2022-11-17T10:06:34.448Z,3.90
2022-11-17T10:09:32.769Z,3.90
2022-11-17T10:15:37.321Z,3.90
2022-11-17T10:18:05.594Z,3.90
2022-11-17T10:20:31.865Z,3.90
2022-11-17T10:22:58.226Z,3.90
2022-11-17T10:25:42.810Z,3.90
2022-11-17T10:28:24.906Z,3.90
2022-11-17T10:31:02.105Z,4.00
2022-11-17T10:33:40.276Z,4.00
2022-11-17T10:36:14.806Z,4.10
2022-11-17T10:38:46.852Z,4.10
2022-11-17T10:41:16.216Z,4.20
2022-11-17T10:43:45.109Z,4.20
2022-11-17T10:46:16.934Z,4.20
2022-11-17T10:49:00.864Z,4.20
2022-11-17T10:51:34.290Z,4.20
2022-11-17T10:54:26.499Z,4.20
2022-11-17T10:56:56.776Z,4.20
2022-11-17T10:59:40.634Z,4.30
2022-11-17T11:05:45.937Z,4.30
2022-11-17T11:08:21.413Z,4.20
2022-11-17T11:10:51.499Z,4.10
2022-11-17T11:13:39.330Z,4.10
2022-11-17T11:16:07.579Z,4.00
2022-11-17T11:18:35.281Z,4.00
2022-11-17T11:28:02.767Z,4.00
2022-11-17T11:30:29.197Z,4.00
2022-11-17T11:35:57.197Z,4.00
2022-11-17T11:38:52.376Z,3.90
2022-11-17T11:41:56.255Z,3.90
2022-11-17T11:45:45.843Z,3.90
2022-11-17T11:48:19.547Z,3.90
2022-11-17T11:51:32.927Z,3.90
2022-11-17T11:54:14.786Z,3.90
2022-11-17T11:56:46.165Z,3.90
2022-11-17T12:00:36.764Z,4.00
2022-11-17T12:07:12.419Z,4.00
2022-11-17T12:11:31.419Z,4.00
2022-11-17T12:13:57.685Z,4.00
2022-11-17T12:16:39.395Z,4.00
2022-11-17T12:22:03.105Z,4.00
2022-11-17T12:24:33.679Z,4.00
2022-11-17T12:29:11.692Z,4.00
2022-11-17T12:31:42.794Z,4.00
2022-11-17T12:35:12.884Z,4.00
2022-11-17T12:37:39.666Z,3.90
2022-11-17T12:40:57.853Z,3.90
2022-11-17T12:43:30.290Z,3.90
2022-11-17T12:46:27.539Z,3.90
2022-11-17T12:49:33.872Z,3.90
2022-11-17T12:52:01.938Z,3.90
2022-11-17T12:54:40.933Z,5.20
2022-11-17T12:57:13.379Z,3.90
2022-11-17T13:00:09.026Z,3.90
2022-11-17T13:03:15.880Z,3.80
2022-11-17T13:05:42.885Z,3.70
2022-11-17T13:08:21.045Z,3.60
2022-11-17T13:10:47.293Z,3.60
2022-11-17T13:13:20.300Z,3.60
2022-11-17T13:15:54.523Z,3.60
2022-11-17T13:18:38.122Z,3.50
2022-11-17T13:21:14.563Z,3.50
2022-11-17T13:23:44.990Z,3.50
2022-11-17T13:26:22.777Z,3.50
2022-11-17T13:29:04.609Z,3.40
2022-11-17T13:31:31.719Z,3.40
2022-11-17T13:34:16.897Z,3.40
2022-11-17T13:37:01.916Z,3.40
2022-11-17T13:39:28.656Z,3.50
2022-11-17T13:42:00.592Z,3.40
2022-11-17T13:44:28.021Z,3.40
2022-11-17T13:46:56.101Z,3.40
2022-11-17T13:49:38.757Z,3.40
2022-11-17T13:52:12.712Z,3.30
2022-11-17T13:54:43.943Z,3.40
2022-11-17T13:57:25.732Z,3.30
2022-11-17T13:59:52.693Z,3.30
2022-11-17T14:02:23.797Z,3.30
2022-11-17T14:05:19.191Z,3.30
2022-11-17T14:07:46.436Z,3.30
2022-11-17T14:12:51.136Z,3.10
2022-11-17T14:15:53.778Z,3.30
2022-11-17T14:18:36.650Z,3.20
2022-11-17T14:21:36.860Z,3.20
2022-11-17T14:24:11.521Z,3.20
2022-11-17T14:26:44.348Z,3.20
2022-11-17T14:29:11.951Z,3.20
2022-11-17T14:31:38.562Z,3.20
2022-11-17T14:34:04.777Z,3.20
2022-11-17T14:36:31.648Z,3.20
2022-11-17T14:38:58.607Z,3.20
2022-11-17T14:41:25.742Z,3.20
2022-11-17T14:43:52.043Z,3.20
2022-11-17T14:46:23.716Z,3.20
2022-11-17T14:48:50.157Z,3.20
2022-11-17T14:51:16.463Z,3.20
2022-11-17T14:53:43.829Z,4.30
2022-11-17T14:56:12.558Z,3.20
2022-11-17T14:58:39.355Z,3.10
2022-11-17T15:01:15.261Z,3.10
2022-11-17T15:03:41.532Z,3.10
2022-11-17T15:06:09.574Z,3.10
2022-11-17T15:08:36.259Z,3.10
2022-11-17T15:11:04.010Z,3.10
2022-11-17T15:13:30.311Z,3.10
2022-11-17T15:16:04.733Z,3.00
2022-11-17T15:18:32.675Z,3.00
2022-11-17T15:21:06.353Z,3.10
2022-11-17T15:23:35.706Z,3.00
2022-11-17T15:26:07.592Z,3.00
2022-11-17T15:28:35.686Z,3.00
2022-11-17T15:31:16.532Z,3.00
2022-11-17T15:33:43.540Z,3.00
2022-11-17T15:36:11.626Z,3.00
2022-11-17T15:38:39.180Z,3.00
2022-11-17T15:41:06.963Z,2.90
2022-11-17T15:43:36.882Z,2.90
2022-11-17T15:46:11.691Z,2.80
2022-11-17T15:48:39.470Z,2.80
2022-11-17T15:51:07.323Z,2.80
2022-11-17T15:53:35.186Z,2.80
2022-11-17T15:56:09.330Z,2.70
2022-11-17T15:58:36.233Z,2.70
2022-11-17T16:02:58.557Z,2.70
2022-11-17T16:05:25.569Z,2.70
2022-11-17T16:07:52.722Z,2.70
2022-11-17T16:10:19.249Z,2.70
2022-11-17T16:12:46.335Z,2.70
2022-11-17T16:15:12.624Z,2.70
2022-11-17T16:17:39.432Z,2.70
2022-11-17T16:20:07.749Z,2.70
2022-11-17T16:22:34.305Z,2.60
2022-11-17T16:25:00.441Z,2.70
2022-11-17T16:27:27.713Z,2.70
2022-11-17T16:29:53.884Z,2.60
2022-11-17T16:32:20.622Z,2.60
2022-11-17T16:34:49.029Z,2.60
2022-11-17T16:37:15.662Z,2.60
2022-11-17T16:39:41.872Z,2.60
2022-11-17T16:42:09.357Z,2.60
2022-11-17T16:44:35.646Z,2.60
2022-11-17T16:47:02.501Z,2.60
2022-11-17T16:49:30.310Z,3.20
2022-11-17T16:51:56.557Z,2.60
2022-11-17T16:54:23.112Z,2.60
2022-11-17T16:56:49.664Z,2.60
2022-11-17T16:59:17.246Z,2.60
2022-11-17T17:01:43.787Z,2.60
2022-11-17T17:04:10.193Z,2.60
2022-11-17T17:06:39.927Z,2.60
2022-11-17T17:09:08.098Z,2.60
2022-11-17T17:11:35.182Z,2.60
2022-11-17T17:14:03.910Z,2.60
2022-11-17T17:16:31.071Z,2.60
2022-11-17T17:19:00.097Z,2.60
2022-11-17T17:21:26.436Z,2.60
2022-11-17T17:23:53.728Z,2.60
2022-11-17T17:26:22.534Z,2.60
2022-11-17T17:28:52.131Z,2.70
2022-11-17T17:31:21.993Z,2.60
2022-11-17T17:33:51.552Z,2.60
2022-11-17T17:36:21.891Z,2.60
2022-11-17T17:38:55.106Z,2.50
2022-11-17T17:41:23.937Z,2.50
2022-11-17T17:43:56.574Z,2.60
2022-11-17T17:46:23.214Z,2.60
2022-11-17T17:48:49.576Z,2.60
2022-11-17T17:51:18.977Z,2.60
2022-11-17T17:53:46.242Z,2.50
2022-11-17T17:56:13.985Z,2.50
2022-11-17T17:58:43.413Z,2.60
2022-11-17T18:01:27.859Z,2.50
2022-11-17T18:04:05.865Z,2.50
2022-11-17T18:06:38.985Z,2.50
2022-11-17T18:09:07.102Z,2.50
2022-11-17T18:11:33.313Z,2.50
2022-11-17T18:14:00.477Z,2.50
2022-11-17T18:16:29.020Z,2.50
2022-11-17T18:18:58.285Z,2.50
2022-11-17T18:21:25.201Z,2.50
2022-11-17T18:23:53.303Z,2.50
2022-11-17T18:26:25.112Z,2.50
2022-11-17T18:29:24.790Z,2.50
2022-11-17T18:31:51.899Z,2.50
2022-11-17T18:34:22.605Z,2.50
2022-11-17T18:36:57.099Z,2.50
2022-11-17T18:39:24.535Z,2.50
2022-11-17T18:41:54.958Z,2.50
2022-11-17T18:44:23.104Z,2.50
2022-11-17T18:46:50.877Z,2.50
2022-11-17T18:49:18.403Z,2.50
2022-11-17T18:51:47.073Z,2.50
2022-11-17T18:54:15.653Z,2.50
2022-11-17T18:56:44.021Z,2.50
2022-11-17T18:59:12.120Z,2.50
2022-11-17T19:01:40.091Z,4.80
2022-11-17T19:04:07.476Z,2.50
2022-11-17T19:06:36.294Z,2.50
2022-11-17T19:09:04.655Z,2.50
2022-11-17T19:11:33.640Z,2.50
2022-11-17T19:14:04.915Z,2.50
2022-11-17T19:16:32.967Z,2.40
2022-11-17T19:19:02.062Z,2.40
2022-11-17T19:21:30.167Z,2.40
2022-11-17T19:23:58.976Z,2.40
2022-11-17T19:26:27.142Z,2.40
2022-11-17T19:28:57.536Z,2.40
2022-11-17T19:31:24.342Z,4.40
2022-11-17T19:33:53.068Z,2.40
2022-11-17T19:36:41.047Z,2.40
2022-11-17T19:39:07.890Z,2.40
2022-11-17T19:41:36.029Z,2.40
2022-11-17T19:44:04.373Z,2.40
2022-11-17T19:46:31.669Z,2.40
2022-11-17T19:48:59.757Z,2.40
2022-11-17T19:51:33.256Z,2.40
2022-11-17T19:54:04.702Z,2.40
2022-11-17T19:56:32.017Z,2.50
2022-11-17T19:58:59.275Z,2.30
2022-11-17T20:01:27.085Z,2.30
2022-11-17T20:03:55.589Z,2.30
2022-11-17T20:06:27.841Z,2.30
2022-11-17T20:08:59.144Z,2.30
2022-11-17T20:11:29.759Z,2.30
2022-11-17T20:13:58.663Z,2.40
2022-11-17T20:16:26.828Z,2.30
2022-11-17T20:19:00.228Z,2.30
2022-11-17T20:21:29.427Z,2.30
2022-11-17T20:24:00.627Z,2.30
2022-11-17T20:26:29.809Z,2.30
2022-11-17T20:28:58.230Z,2.30
2022-11-17T20:31:30.755Z,2.30
2022-11-17T20:33:59.866Z,2.30
2022-11-17T20:36:37.636Z,2.30
2022-11-17T20:39:05.551Z,2.20
2022-11-17T20:41:32.485Z,2.30
2022-11-17T20:43:59.347Z,2.20
2022-11-17T20:46:26.000Z,2.20
2022-11-17T20:48:53.327Z,2.20
2022-11-17T20:51:21.284Z,2.20
2022-11-17T20:53:47.629Z,2.20
2022-11-17T20:56:17.599Z,2.20
2022-11-17T20:58:43.912Z,2.20
2022-11-17T21:01:18.242Z,2.20
2022-11-17T21:03:45.038Z,2.10
2022-11-17T21:06:11.929Z,2.20
2022-11-17T21:08:39.596Z,2.10
2022-11-17T21:11:10.892Z,2.10
2022-11-17T21:13:39.321Z,2.10
2022-11-17T21:16:10.368Z,2.20
2022-11-17T21:18:38.981Z,2.10
2022-11-17T21:21:10.311Z,2.10
2022-11-17T21:23:38.277Z,2.10
2022-11-17T21:26:06.208Z,2.10
2022-11-17T21:28:33.551Z,2.10
2022-11-17T21:31:08.219Z,2.10
2022-11-17T21:33:36.043Z,2.10
2022-11-17T21:36:10.911Z,2.10
2022-11-17T21:38:38.248Z,2.10
2022-11-17T21:41:05.870Z,2.10
2022-11-17T21:43:34.441Z,2.10
2022-11-17T21:46:07.300Z,2.10
2022-11-17T21:48:34.942Z,2.10
2022-11-17T21:51:03.118Z,2.10
2022-11-17T21:53:29.591Z,2.10
2022-11-17T21:56:04.688Z,2.10
2022-11-17T21:58:31.733Z,2.10
2022-11-17T22:00:59.961Z,2.10
2022-11-17T22:03:27.153Z,2.10
2022-11-17T22:05:56.773Z,2.10
2022-11-17T22:08:26.325Z,2.00
2022-11-17T22:10:54.333Z,2.00
2022-11-17T22:13:20.801Z,2.00
2022-11-17T22:15:48.226Z,2.00
2022-11-17T22:18:14.747Z,2.00
2022-11-17T22:20:42.141Z,2.00
2022-11-17T22:23:13.253Z,2.00
2022-11-17T22:25:45.835Z,2.00
2022-11-17T22:28:14.889Z,2.00
2022-11-17T22:30:41.668Z,2.00
2022-11-17T22:33:08.614Z,2.00
2022-11-17T22:35:34.797Z,2.00
2022-11-17T22:38:01.481Z,2.00
2022-11-17T22:40:28.775Z,2.00
2022-11-17T22:42:55.563Z,2.00
2022-11-17T22:45:22.423Z,1.90
2022-11-17T22:47:49.253Z,1.90
2022-11-17T22:50:17.455Z,1.90
2022-11-17T22:52:43.606Z,1.90
2022-11-17T22:55:10.280Z,1.90
2022-11-17T22:57:36.759Z,1.90
2022-11-17T23:00:04.889Z,1.90
2022-11-17T23:02:32.244Z,1.80
2022-11-17T23:04:58.531Z,1.80
2022-11-17T23:07:25.257Z,1.80
2022-11-17T23:09:52.779Z,1.80
2022-11-17T23:12:19.031Z,1.80
2022-11-17T23:14:46.045Z,1.90
2022-11-17T23:17:12.668Z,1.80
2022-11-17T23:19:39.922Z,1.80
2022-11-17T23:22:06.257Z,1.80
2022-11-17T23:24:33.472Z,1.80
2022-11-17T23:27:00.423Z,1.80
2022-11-17T23:29:27.811Z,1.80
2022-11-17T23:31:54.060Z,1.80
2022-11-17T23:34:20.252Z,1.80
2022-11-17T23:36:46.418Z,1.80
2022-11-17T23:39:12.718Z,1.80
2022-11-17T23:41:39.634Z,1.80
2022-11-17T23:44:06.321Z,1.80
2022-11-17T23:46:33.043Z,1.80
2022-11-17T23:48:59.223Z,1.70
2022-11-17T23:51:26.269Z,1.70
2022-11-17T23:53:53.901Z,1.70
2022-11-17T23:56:20.406Z,1.60
2022-11-17T23:58:46.605Z,1.60
